sensor_id;sensor_type;location;lat;lon;timestamp;P1;durP1;ratioP1;P2;durP2;ratioP2
39044;SDS011;52192;52.002;5.956;2022-11-15T00:00:18;9.70;;;4.90;;
39044;SDS011;52192;52.002;5.956;2022-11-15T00:02:44;7.18;;;5.22;;
39044;SDS011;52192;52.002;5.956;2022-11-15T00:05:13;8.82;;;4.50;;
39044;SDS011;52192;52.002;5.956;2022-11-15T00:07:44;7.78;;;5.25;;
39044;SDS011;52192;52.002;5.956;2022-11-15T00:10:16;12.85;;;5.00;;
39044;SDS011;52192;52.002;5.956;2022-11-15T00:18:57;7.53;;;4.78;;
39044;SDS011;52192;52.002;5.956;2022-11-15T00:27:29;10.55;;;5.15;;
39044;SDS011;52192;52.002;5.956;2022-11-15T00:29:55;10.52;;;5.22;;
39044;SDS011;52192;52.002;5.956;2022-11-15T00:35:48;9.52;;;5.53;;
39044;SDS011;52192;52.002;5.956;2022-11-15T00:38:19;7.60;;;4.97;;
39044;SDS011;52192;52.002;5.956;2022-11-15T00:40:45;11.73;;;5.13;;
39044;SDS011;52192;52.002;5.956;2022-11-15T00:43:18;6.03;;;4.93;;
39044;SDS011;52192;52.002;5.956;2022-11-15T00:45:47;7.20;;;5.15;;
39044;SDS011;52192;52.002;5.956;2022-11-15T00:48:13;7.68;;;5.30;;
39044;SDS011;52192;52.002;5.956;2022-11-15T00:50:38;7.53;;;4.00;;
39044;SDS011;52192;52.002;5.956;2022-11-15T00:53:20;5.50;;;4.10;;
39044;SDS011;52192;52.002;5.956;2022-11-15T00:55:55;7.22;;;5.38;;
39044;SDS011;52192;52.002;5.956;2022-11-15T00:58:21;7.47;;;4.20;;
39044;SDS011;52192;52.002;5.956;2022-11-15T01:00:47;6.15;;;3.78;;
39044;SDS011;52192;52.002;5.956;2022-11-15T01:03:12;6.72;;;4.78;;
39044;SDS011;52192;52.002;5.956;2022-11-15T01:05:41;7.47;;;4.20;;
39044;SDS011;52192;52.002;5.956;2022-11-15T01:08:11;8.77;;;4.75;;
39044;SDS011;52192;52.002;5.956;2022-11-15T01:10:44;6.72;;;4.55;;
39044;SDS011;52192;52.002;5.956;2022-11-15T01:13:09;6.53;;;3.92;;
39044;SDS011;52192;52.002;5.956;2022-11-15T01:18:41;7.53;;;4.43;;
39044;SDS011;52192;52.002;5.956;2022-11-15T01:21:26;5.93;;;3.63;;
39044;SDS011;52192;52.002;5.956;2022-11-15T01:27:03;7.00;;;4.45;;
39044;SDS011;52192;52.002;5.956;2022-11-15T01:29:38;4.80;;;3.58;;
39044;SDS011;52192;52.002;5.956;2022-11-15T01:32:15;6.85;;;3.85;;
39044;SDS011;52192;52.002;5.956;2022-11-15T01:34:55;9.90;;;4.18;;
39044;SDS011;52192;52.002;5.956;2022-11-15T01:37:20;7.80;;;3.42;;
39044;SDS011;52192;52.002;5.956;2022-11-15T01:39:52;4.82;;;3.42;;
39044;SDS011;52192;52.002;5.956;2022-11-15T01:42:20;8.13;;;4.38;;
39044;SDS011;52192;52.002;5.956;2022-11-15T01:45:15;6.28;;;4.20;;
39044;SDS011;52192;52.002;5.956;2022-11-15T01:47:51;5.88;;;3.75;;
39044;SDS011;52192;52.002;5.956;2022-11-15T01:50:30;5.88;;;3.55;;
39044;SDS011;52192;52.002;5.956;2022-11-15T01:53:01;8.35;;;4.43;;
39044;SDS011;52192;52.002;5.956;2022-11-15T01:55:33;3.83;;;3.33;;
39044;SDS011;52192;52.002;5.956;2022-11-15T01:58:06;5.78;;;4.35;;
39044;SDS011;52192;52.002;5.956;2022-11-15T02:00:38;7.75;;;3.97;;
39044;SDS011;52192;52.002;5.956;2022-11-15T02:03:15;6.97;;;3.92;;
39044;SDS011;52192;52.002;5.956;2022-11-15T02:05:41;6.72;;;4.05;;
39044;SDS011;52192;52.002;5.956;2022-11-15T02:08:11;8.18;;;4.20;;
39044;SDS011;52192;52.002;5.956;2022-11-15T02:10:45;5.47;;;3.55;;
39044;SDS011;52192;52.002;5.956;2022-11-15T02:13:12;4.40;;;3.55;;
39044;SDS011;52192;52.002;5.956;2022-11-15T02:32:50;6.63;;;3.72;;
39044;SDS011;52192;52.002;5.956;2022-11-15T02:35:35;7.53;;;3.95;;
39044;SDS011;52192;52.002;5.956;2022-11-15T02:38:32;4.47;;;2.85;;
39044;SDS011;52192;52.002;5.956;2022-11-15T02:41:14;3.45;;;3.03;;
39044;SDS011;52192;52.002;5.956;2022-11-15T02:44:13;6.75;;;3.50;;
39044;SDS011;52192;52.002;5.956;2022-11-15T02:46:53;4.78;;;3.80;;
39044;SDS011;52192;52.002;5.956;2022-11-15T02:49:39;4.15;;;3.10;;
39044;SDS011;52192;52.002;5.956;2022-11-15T02:54:57;5.25;;;3.00;;
39044;SDS011;52192;52.002;5.956;2022-11-15T03:00:13;5.45;;;3.20;;
39044;SDS011;52192;52.002;5.956;2022-11-15T03:02:56;3.58;;;3.28;;
39044;SDS011;52192;52.002;5.956;2022-11-15T03:19:12;3.80;;;2.88;;
39044;SDS011;52192;52.002;5.956;2022-11-15T03:21:59;3.95;;;2.65;;
39044;SDS011;52192;52.002;5.956;2022-11-15T03:24:29;4.78;;;3.47;;
39044;SDS011;52192;52.002;5.956;2022-11-15T03:27:00;6.07;;;3.08;;
39044;SDS011;52192;52.002;5.956;2022-11-15T03:29:29;5.63;;;3.03;;
39044;SDS011;52192;52.002;5.956;2022-11-15T03:34:52;5.18;;;3.08;;
39044;SDS011;52192;52.002;5.956;2022-11-15T03:38:11;5.60;;;3.50;;
39044;SDS011;52192;52.002;5.956;2022-11-15T03:40:17;3.95;;;2.88;;
39044;SDS011;52192;52.002;5.956;2022-11-15T03:42:56;2.88;;;2.60;;
39044;SDS011;52192;52.002;5.956;2022-11-15T03:45:55;2.45;;;2.20;;
39044;SDS011;52192;52.002;5.956;2022-11-15T03:48:51;4.15;;;2.42;;
39044;SDS011;52192;52.002;5.956;2022-11-15T03:51:29;3.20;;;2.75;;
39044;SDS011;52192;52.002;5.956;2022-11-15T03:53:58;3.83;;;3.00;;
39044;SDS011;52192;52.002;5.956;2022-11-15T03:56:24;5.38;;;3.30;;
39044;SDS011;52192;52.002;5.956;2022-11-15T03:58:50;3.80;;;2.85;;
39044;SDS011;52192;52.002;5.956;2022-11-15T04:01:16;3.28;;;2.35;;
39044;SDS011;52192;52.002;5.956;2022-11-15T04:03:41;3.42;;;2.65;;
39044;SDS011;52192;52.002;5.956;2022-11-15T04:06:08;3.50;;;3.15;;
39044;SDS011;52192;52.002;5.956;2022-11-15T04:08:41;5.20;;;3.65;;
39044;SDS011;52192;52.002;5.956;2022-11-15T04:11:16;4.95;;;3.50;;
39044;SDS011;52192;52.002;5.956;2022-11-15T04:13:50;5.72;;;3.80;;
39044;SDS011;52192;52.002;5.956;2022-11-15T04:16:19;6.07;;;3.30;;
39044;SDS011;52192;52.002;5.956;2022-11-15T04:19:03;3.28;;;2.67;;
39044;SDS011;52192;52.002;5.956;2022-11-15T04:21:49;12.15;;;3.85;;
39044;SDS011;52192;52.002;5.956;2022-11-15T04:24:34;6.88;;;4.40;;
39044;SDS011;52192;52.002;5.956;2022-11-15T04:27:02;4.10;;;2.78;;
39044;SDS011;52192;52.002;5.956;2022-11-15T04:29:30;4.40;;;3.38;;
39044;SDS011;52192;52.002;5.956;2022-11-15T04:32:17;3.83;;;3.13;;
39044;SDS011;52192;52.002;5.956;2022-11-15T04:34:46;5.43;;;3.63;;
39044;SDS011;52192;52.002;5.956;2022-11-15T04:37:27;6.50;;;3.10;;
39044;SDS011;52192;52.002;5.956;2022-11-15T04:40:06;4.50;;;2.70;;
39044;SDS011;52192;52.002;5.956;2022-11-15T04:42:49;3.55;;;2.85;;
39044;SDS011;52192;52.002;5.956;2022-11-15T04:45:24;6.28;;;2.80;;
39044;SDS011;52192;52.002;5.956;2022-11-15T04:48:01;3.30;;;2.92;;
39044;SDS011;52192;52.002;5.956;2022-11-15T04:50:33;4.43;;;3.13;;
39044;SDS011;52192;52.002;5.956;2022-11-15T04:53:02;3.53;;;3.20;;
39044;SDS011;52192;52.002;5.956;2022-11-15T04:55:41;6.07;;;2.72;;
39044;SDS011;52192;52.002;5.956;2022-11-15T04:58:15;3.92;;;2.88;;
39044;SDS011;52192;52.002;5.956;2022-11-15T05:03:38;4.70;;;3.03;;
39044;SDS011;52192;52.002;5.956;2022-11-15T05:06:22;4.10;;;2.85;;
39044;SDS011;52192;52.002;5.956;2022-11-15T05:08:48;5.25;;;3.65;;
39044;SDS011;52192;52.002;5.956;2022-11-15T05:11:13;9.35;;;3.20;;
39044;SDS011;52192;52.002;5.956;2022-11-15T05:13:39;3.35;;;3.05;;
39044;SDS011;52192;52.002;5.956;2022-11-15T05:16:05;3.80;;;3.08;;
39044;SDS011;52192;52.002;5.956;2022-11-15T05:18:30;4.35;;;3.03;;
39044;SDS011;52192;52.002;5.956;2022-11-15T05:21:09;4.78;;;2.90;;
39044;SDS011;52192;52.002;5.956;2022-11-15T05:23:37;4.07;;;2.58;;
39044;SDS011;52192;52.002;5.956;2022-11-15T05:26:04;5.28;;;2.92;;
39044;SDS011;52192;52.002;5.956;2022-11-15T05:28:34;4.65;;;2.92;;
39044;SDS011;52192;52.002;5.956;2022-11-15T05:31:09;3.20;;;2.40;;
39044;SDS011;52192;52.002;5.956;2022-11-15T05:33:40;5.22;;;2.75;;
39044;SDS011;52192;52.002;5.956;2022-11-15T05:36:24;3.53;;;2.80;;
39044;SDS011;52192;52.002;5.956;2022-11-15T05:38:56;5.00;;;2.97;;
39044;SDS011;52192;52.002;5.956;2022-11-15T05:41:41;4.43;;;2.63;;
39044;SDS011;52192;52.002;5.956;2022-11-15T05:44:21;6.38;;;3.67;;
39044;SDS011;52192;52.002;5.956;2022-11-15T05:46:48;6.78;;;2.90;;
39044;SDS011;52192;52.002;5.956;2022-11-15T05:49:19;5.35;;;3.28;;
39044;SDS011;52192;52.002;5.956;2022-11-15T05:51:49;5.00;;;3.15;;
39044;SDS011;52192;52.002;5.956;2022-11-15T05:54:16;3.40;;;2.90;;
39044;SDS011;52192;52.002;5.956;2022-11-15T05:56:44;3.28;;;2.13;;
39044;SDS011;52192;52.002;5.956;2022-11-15T05:59:10;3.13;;;2.83;;
39044;SDS011;52192;52.002;5.956;2022-11-15T06:01:36;4.57;;;3.05;;
39044;SDS011;52192;52.002;5.956;2022-11-15T06:04:03;4.22;;;2.55;;
39044;SDS011;52192;52.002;5.956;2022-11-15T06:06:29;4.18;;;2.38;;
39044;SDS011;52192;52.002;5.956;2022-11-15T06:08:55;9.23;;;3.15;;
39044;SDS011;52192;52.002;5.956;2022-11-15T06:11:20;4.07;;;2.65;;
39044;SDS011;52192;52.002;5.956;2022-11-15T06:13:46;7.05;;;3.70;;
39044;SDS011;52192;52.002;5.956;2022-11-15T06:16:11;4.55;;;2.95;;
39044;SDS011;52192;52.002;5.956;2022-11-15T06:18:37;4.43;;;2.70;;
39044;SDS011;52192;52.002;5.956;2022-11-15T06:21:03;5.22;;;3.22;;
39044;SDS011;52192;52.002;5.956;2022-11-15T06:23:33;3.90;;;2.75;;
39044;SDS011;52192;52.002;5.956;2022-11-15T06:26:00;6.97;;;3.20;;
39044;SDS011;52192;52.002;5.956;2022-11-15T06:28:30;3.45;;;2.67;;
39044;SDS011;52192;52.002;5.956;2022-11-15T06:31:02;7.05;;;2.60;;
39044;SDS011;52192;52.002;5.956;2022-11-15T06:33:28;4.57;;;3.10;;
39044;SDS011;52192;52.002;5.956;2022-11-15T06:35:54;4.88;;;3.05;;
39044;SDS011;52192;52.002;5.956;2022-11-15T06:38:20;3.63;;;2.63;;
39044;SDS011;52192;52.002;5.956;2022-11-15T06:40:45;6.03;;;2.78;;
39044;SDS011;52192;52.002;5.956;2022-11-15T06:43:11;3.58;;;2.38;;
39044;SDS011;52192;52.002;5.956;2022-11-15T06:45:37;5.30;;;2.67;;
39044;SDS011;52192;52.002;5.956;2022-11-15T06:48:03;3.65;;;2.50;;
39044;SDS011;52192;52.002;5.956;2022-11-15T06:50:29;4.82;;;2.72;;
39044;SDS011;52192;52.002;5.956;2022-11-15T06:52:54;4.60;;;2.45;;
39044;SDS011;52192;52.002;5.956;2022-11-15T06:55:20;5.00;;;2.72;;
39044;SDS011;52192;52.002;5.956;2022-11-15T06:57:46;4.40;;;2.50;;
39044;SDS011;52192;52.002;5.956;2022-11-15T07:00:18;3.58;;;2.33;;
39044;SDS011;52192;52.002;5.956;2022-11-15T07:02:45;9.20;;;2.70;;
39044;SDS011;52192;52.002;5.956;2022-11-15T07:05:11;4.68;;;3.28;;
39044;SDS011;52192;52.002;5.956;2022-11-15T07:07:38;6.45;;;3.22;;
39044;SDS011;52192;52.002;5.956;2022-11-15T07:10:04;4.68;;;2.70;;
39044;SDS011;52192;52.002;5.956;2022-11-15T07:12:30;4.50;;;2.78;;
39044;SDS011;52192;52.002;5.956;2022-11-15T07:14:56;4.18;;;3.00;;
39044;SDS011;52192;52.002;5.956;2022-11-15T07:17:21;3.45;;;2.47;;
39044;SDS011;52192;52.002;5.956;2022-11-15T07:19:47;2.85;;;2.60;;
39044;SDS011;52192;52.002;5.956;2022-11-15T07:22:13;4.63;;;2.65;;
39044;SDS011;52192;52.002;5.956;2022-11-15T07:24:38;3.35;;;2.60;;
39044;SDS011;52192;52.002;5.956;2022-11-15T07:27:04;6.60;;;3.67;;
39044;SDS011;52192;52.002;5.956;2022-11-15T07:29:29;3.10;;;2.28;;
39044;SDS011;52192;52.002;5.956;2022-11-15T07:31:55;3.95;;;2.92;;
39044;SDS011;52192;52.002;5.956;2022-11-15T07:34:21;6.75;;;3.13;;
39044;SDS011;52192;52.002;5.956;2022-11-15T07:36:47;4.32;;;2.97;;
39044;SDS011;52192;52.002;5.956;2022-11-15T07:39:12;4.57;;;2.95;;
39044;SDS011;52192;52.002;5.956;2022-11-15T07:41:39;3.33;;;3.03;;
39044;SDS011;52192;52.002;5.956;2022-11-15T07:44:05;3.03;;;2.55;;
39044;SDS011;52192;52.002;5.956;2022-11-15T07:46:31;5.70;;;2.90;;
39044;SDS011;52192;52.002;5.956;2022-11-15T07:48:56;4.45;;;3.22;;
39044;SDS011;52192;52.002;5.956;2022-11-15T07:51:22;4.28;;;3.08;;
39044;SDS011;52192;52.002;5.956;2022-11-15T07:53:48;4.50;;;2.42;;
39044;SDS011;52192;52.002;5.956;2022-11-15T07:56:14;4.78;;;2.60;;
39044;SDS011;52192;52.002;5.956;2022-11-15T07:58:40;6.57;;;2.60;;
39044;SDS011;52192;52.002;5.956;2022-11-15T08:01:06;3.35;;;2.58;;
39044;SDS011;52192;52.002;5.956;2022-11-15T08:03:34;4.57;;;2.85;;
39044;SDS011;52192;52.002;5.956;2022-11-15T08:06:00;3.65;;;2.55;;
39044;SDS011;52192;52.002;5.956;2022-11-15T08:08:27;4.70;;;2.78;;
39044;SDS011;52192;52.002;5.956;2022-11-15T08:10:53;5.20;;;2.45;;
39044;SDS011;52192;52.002;5.956;2022-11-15T08:13:19;3.08;;;2.20;;
39044;SDS011;52192;52.002;5.956;2022-11-15T08:15:45;3.72;;;2.90;;
39044;SDS011;52192;52.002;5.956;2022-11-15T08:18:13;2.83;;;2.10;;
39044;SDS011;52192;52.002;5.956;2022-11-15T08:20:40;2.88;;;2.13;;
39044;SDS011;52192;52.002;5.956;2022-11-15T08:23:07;3.70;;;2.05;;
39044;SDS011;52192;52.002;5.956;2022-11-15T08:25:33;3.92;;;2.13;;
39044;SDS011;52192;52.002;5.956;2022-11-15T08:28:01;2.78;;;2.22;;
39044;SDS011;52192;52.002;5.956;2022-11-15T08:30:28;3.28;;;1.88;;
39044;SDS011;52192;52.002;5.956;2022-11-15T08:32:56;3.92;;;2.63;;
39044;SDS011;52192;52.002;5.956;2022-11-15T08:35:23;2.45;;;2.25;;
39044;SDS011;52192;52.002;5.956;2022-11-15T08:37:49;4.03;;;2.72;;
39044;SDS011;52192;52.002;5.956;2022-11-15T08:40:17;3.03;;;2.00;;
39044;SDS011;52192;52.002;5.956;2022-11-15T08:42:45;2.50;;;2.13;;
39044;SDS011;52192;52.002;5.956;2022-11-15T08:45:12;6.03;;;1.73;;
39044;SDS011;52192;52.002;5.956;2022-11-15T08:47:38;3.65;;;2.53;;
39044;SDS011;52192;52.002;5.956;2022-11-15T08:50:04;3.13;;;2.22;;
39044;SDS011;52192;52.002;5.956;2022-11-15T08:52:30;3.45;;;2.30;;
39044;SDS011;52192;52.002;5.956;2022-11-15T08:54:56;3.58;;;2.40;;
39044;SDS011;52192;52.002;5.956;2022-11-15T08:57:22;2.50;;;1.90;;
39044;SDS011;52192;52.002;5.956;2022-11-15T08:59:48;4.55;;;2.35;;
39044;SDS011;52192;52.002;5.956;2022-11-15T09:02:14;2.40;;;1.73;;
39044;SDS011;52192;52.002;5.956;2022-11-15T09:04:40;3.35;;;2.10;;
39044;SDS011;52192;52.002;5.956;2022-11-15T09:07:08;4.13;;;2.42;;
39044;SDS011;52192;52.002;5.956;2022-11-15T09:09:35;5.40;;;2.70;;
39044;SDS011;52192;52.002;5.956;2022-11-15T09:12:01;4.50;;;2.35;;
39044;SDS011;52192;52.002;5.956;2022-11-15T09:14:27;2.90;;;2.47;;
39044;SDS011;52192;52.002;5.956;2022-11-15T09:16:53;2.45;;;2.25;;
39044;SDS011;52192;52.002;5.956;2022-11-15T09:19:19;3.10;;;2.05;;
39044;SDS011;52192;52.002;5.956;2022-11-15T09:21:44;7.00;;;3.03;;
39044;SDS011;52192;52.002;5.956;2022-11-15T09:24:10;2.88;;;2.10;;
39044;SDS011;52192;52.002;5.956;2022-11-15T09:26:35;4.97;;;2.70;;
39044;SDS011;52192;52.002;5.956;2022-11-15T09:29:01;2.78;;;2.25;;
39044;SDS011;52192;52.002;5.956;2022-11-15T09:31:27;5.53;;;2.65;;
39044;SDS011;52192;52.002;5.956;2022-11-15T09:33:54;2.55;;;2.13;;
39044;SDS011;52192;52.002;5.956;2022-11-15T09:36:20;2.83;;;2.10;;
39044;SDS011;52192;52.002;5.956;2022-11-15T09:38:45;3.25;;;1.88;;
39044;SDS011;52192;52.002;5.956;2022-11-15T09:49:06;2.95;;;2.38;;
39044;SDS011;52192;52.002;5.956;2022-11-15T09:51:34;3.90;;;1.70;;
39044;SDS011;52192;52.002;5.956;2022-11-15T09:54:13;3.63;;;2.00;;
39044;SDS011;52192;52.002;5.956;2022-11-15T09:56:47;3.33;;;2.15;;
39044;SDS011;52192;52.002;5.956;2022-11-15T09:59:37;2.92;;;1.80;;
39044;SDS011;52192;52.002;5.956;2022-11-15T10:04:33;3.08;;;2.13;;
39044;SDS011;52192;52.002;5.956;2022-11-15T10:07:06;2.78;;;1.73;;
39044;SDS011;52192;52.002;5.956;2022-11-15T10:12:22;2.08;;;1.60;;
39044;SDS011;52192;52.002;5.956;2022-11-15T10:14:50;3.28;;;1.92;;
39044;SDS011;52192;52.002;5.956;2022-11-15T10:28:03;3.08;;;1.83;;
39044;SDS011;52192;52.002;5.956;2022-11-15T10:30:38;2.28;;;1.60;;
39044;SDS011;52192;52.002;5.956;2022-11-15T10:41:36;4.38;;;2.03;;
39044;SDS011;52192;52.002;5.956;2022-11-15T10:46:34;2.22;;;1.40;;
39044;SDS011;52192;52.002;5.956;2022-11-15T10:51:48;1.55;;;1.25;;
39044;SDS011;52192;52.002;5.956;2022-11-15T10:54:19;1.70;;;1.60;;
39044;SDS011;52192;52.002;5.956;2022-11-15T10:56:50;1.73;;;1.40;;
39044;SDS011;52192;52.002;5.956;2022-11-15T10:59:23;1.23;;;1.00;;
39044;SDS011;52192;52.002;5.956;2022-11-15T11:01:52;1.27;;;0.80;;
39044;SDS011;52192;52.002;5.956;2022-11-15T11:04:18;1.10;;;0.80;;
39044;SDS011;52192;52.002;5.956;2022-11-15T11:11:53;1.10;;;0.70;;
39044;SDS011;52192;52.002;5.956;2022-11-15T11:14:23;0.88;;;0.55;;
39044;SDS011;52192;52.002;5.956;2022-11-15T11:17:06;0.75;;;0.68;;
39044;SDS011;52192;52.002;5.956;2022-11-15T11:23:00;1.50;;;0.85;;
39044;SDS011;52192;52.002;5.956;2022-11-15T11:34:29;0.85;;;0.60;;
39044;SDS011;52192;52.002;5.956;2022-11-15T11:40:05;0.50;;;0.50;;
39044;SDS011;52192;52.002;5.956;2022-11-15T11:42:59;0.50;;;0.30;;
39044;SDS011;52192;52.002;5.956;2022-11-15T11:48:18;1.58;;;0.95;;
39044;SDS011;52192;52.002;5.956;2022-11-15T11:50:48;0.47;;;0.40;;
39044;SDS011;52192;52.002;5.956;2022-11-15T11:56:15;0.65;;;0.35;;
39044;SDS011;52192;52.002;5.956;2022-11-15T11:58:54;4.13;;;0.60;;
39044;SDS011;52192;52.002;5.956;2022-11-15T12:01:27;1.75;;;0.57;;
39044;SDS011;52192;52.002;5.956;2022-11-15T12:04:03;0.60;;;0.50;;
39044;SDS011;52192;52.002;5.956;2022-11-15T12:09:39;0.68;;;0.50;;
39044;SDS011;52192;52.002;5.956;2022-11-15T12:15:13;1.75;;;0.70;;
39044;SDS011;52192;52.002;5.956;2022-11-15T12:17:43;0.40;;;0.40;;
39044;SDS011;52192;52.002;5.956;2022-11-15T12:20:15;1.27;;;1.08;;
39044;SDS011;52192;52.002;5.956;2022-11-15T12:22:56;0.40;;;0.40;;
39044;SDS011;52192;52.002;5.956;2022-11-15T12:30:55;0.30;;;0.30;;
39044;SDS011;52192;52.002;5.956;2022-11-15T12:33:34;0.40;;;0.40;;
39044;SDS011;52192;52.002;5.956;2022-11-15T12:36:08;0.40;;;0.40;;
39044;SDS011;52192;52.002;5.956;2022-11-15T12:38:55;0.30;;;0.30;;
39044;SDS011;52192;52.002;5.956;2022-11-15T12:43:57;1.00;;;0.50;;
39044;SDS011;52192;52.002;5.956;2022-11-15T12:49:02;0.63;;;0.50;;
39044;SDS011;52192;52.002;5.956;2022-11-15T13:02:20;0.20;;;0.20;;
39044;SDS011;52192;52.002;5.956;2022-11-15T13:04:50;0.43;;;0.43;;
39044;SDS011;52192;52.002;5.956;2022-11-15T13:20:57;1.77;;;0.70;;
39044;SDS011;52192;52.002;5.956;2022-11-15T13:23:24;0.55;;;0.55;;
39044;SDS011;52192;52.002;5.956;2022-11-15T13:28:22;0.87;;;0.50;;
39044;SDS011;52192;52.002;5.956;2022-11-15T13:30:50;0.30;;;0.30;;
39044;SDS011;52192;52.002;5.956;2022-11-15T13:33:22;0.77;;;0.40;;
39044;SDS011;52192;52.002;5.956;2022-11-15T13:35:51;1.17;;;0.57;;
39044;SDS011;52192;52.002;5.956;2022-11-15T13:40:53;0.32;;;0.32;;
39044;SDS011;52192;52.002;5.956;2022-11-15T13:46:09;0.60;;;0.60;;
39044;SDS011;52192;52.002;5.956;2022-11-15T13:48:41;0.20;;;0.20;;
39044;SDS011;52192;52.002;5.956;2022-11-15T13:56:58;0.40;;;0.40;;
39044;SDS011;52192;52.002;5.956;2022-11-15T13:59:31;1.33;;;0.57;;
39044;SDS011;52192;52.002;5.956;2022-11-15T14:02:03;1.05;;;0.40;;
39044;SDS011;52192;52.002;5.956;2022-11-15T14:04:39;0.50;;;0.40;;
39044;SDS011;52192;52.002;5.956;2022-11-15T14:07:20;0.70;;;0.60;;
39044;SDS011;52192;52.002;5.956;2022-11-15T14:09:47;0.40;;;0.40;;
39044;SDS011;52192;52.002;5.956;2022-11-15T14:12:32;2.08;;;0.40;;
39044;SDS011;52192;52.002;5.956;2022-11-15T14:15:01;0.40;;;0.40;;
39044;SDS011;52192;52.002;5.956;2022-11-15T14:17:43;1.20;;;0.57;;
39044;SDS011;52192;52.002;5.956;2022-11-15T14:23:18;0.47;;;0.40;;
39044;SDS011;52192;52.002;5.956;2022-11-15T14:25:56;0.30;;;0.30;;
39044;SDS011;52192;52.002;5.956;2022-11-15T14:30:48;0.63;;;0.30;;
39044;SDS011;52192;52.002;5.956;2022-11-15T14:33:32;0.73;;;0.30;;
39044;SDS011;52192;52.002;5.956;2022-11-15T14:36:16;0.30;;;0.30;;
39044;SDS011;52192;52.002;5.956;2022-11-15T14:38:44;1.88;;;0.68;;
39044;SDS011;52192;52.002;5.956;2022-11-15T14:41:15;0.55;;;0.32;;
39044;SDS011;52192;52.002;5.956;2022-11-15T14:43:50;0.73;;;0.52;;
39044;SDS011;52192;52.002;5.956;2022-11-15T14:46:16;0.22;;;0.22;;
39044;SDS011;52192;52.002;5.956;2022-11-15T14:48:42;1.35;;;0.70;;
39044;SDS011;52192;52.002;5.956;2022-11-15T14:51:15;3.60;;;0.63;;
39044;SDS011;52192;52.002;5.956;2022-11-15T14:53:42;1.20;;;0.40;;
39044;SDS011;52192;52.002;5.956;2022-11-15T14:56:09;0.98;;;0.40;;
39044;SDS011;52192;52.002;5.956;2022-11-15T14:58:34;2.40;;;0.80;;
39044;SDS011;52192;52.002;5.956;2022-11-15T15:01:02;3.17;;;0.95;;
39044;SDS011;52192;52.002;5.956;2022-11-15T15:03:35;0.93;;;0.60;;
39044;SDS011;52192;52.002;5.956;2022-11-15T15:06:01;1.08;;;0.70;;
39044;SDS011;52192;52.002;5.956;2022-11-15T15:08:26;1.30;;;0.90;;
39044;SDS011;52192;52.002;5.956;2022-11-15T15:10:52;1.75;;;0.82;;
39044;SDS011;52192;52.002;5.956;2022-11-15T15:13:19;1.08;;;0.75;;
39044;SDS011;52192;52.002;5.956;2022-11-15T15:15:49;1.40;;;0.75;;
39044;SDS011;52192;52.002;5.956;2022-11-15T15:18:16;1.80;;;0.70;;
39044;SDS011;52192;52.002;5.956;2022-11-15T15:20:43;0.80;;;0.60;;
39044;SDS011;52192;52.002;5.956;2022-11-15T15:23:14;1.00;;;0.65;;
39044;SDS011;52192;52.002;5.956;2022-11-15T15:25:42;1.30;;;0.77;;
39044;SDS011;52192;52.002;5.956;2022-11-15T15:28:08;5.32;;;0.77;;
39044;SDS011;52192;52.002;5.956;2022-11-15T15:30:34;0.60;;;0.60;;
39044;SDS011;52192;52.002;5.956;2022-11-15T15:33:00;1.25;;;0.70;;
39044;SDS011;52192;52.002;5.956;2022-11-15T15:35:28;1.15;;;0.70;;
39044;SDS011;52192;52.002;5.956;2022-11-15T15:37:55;0.95;;;0.70;;
39044;SDS011;52192;52.002;5.956;2022-11-15T15:40:21;4.20;;;0.90;;
39044;SDS011;52192;52.002;5.956;2022-11-15T15:42:48;2.33;;;1.20;;
39044;SDS011;52192;52.002;5.956;2022-11-15T15:45:15;1.25;;;0.88;;
39044;SDS011;52192;52.002;5.956;2022-11-15T15:47:41;1.98;;;0.70;;
39044;SDS011;52192;52.002;5.956;2022-11-15T15:52:43;3.33;;;0.85;;
39044;SDS011;52192;52.002;5.956;2022-11-15T15:55:08;2.47;;;0.95;;
39044;SDS011;52192;52.002;5.956;2022-11-15T15:57:35;1.77;;;0.75;;
39044;SDS011;52192;52.002;5.956;2022-11-15T16:00:01;12.38;;;1.25;;
39044;SDS011;52192;52.002;5.956;2022-11-15T16:02:28;1.27;;;0.60;;
39044;SDS011;52192;52.002;5.956;2022-11-15T16:04:53;1.00;;;0.80;;
39044;SDS011;52192;52.002;5.956;2022-11-15T16:07:22;2.65;;;0.98;;
39044;SDS011;52192;52.002;5.956;2022-11-15T16:09:53;1.58;;;1.15;;
39044;SDS011;52192;52.002;5.956;2022-11-15T16:12:25;5.35;;;0.85;;
39044;SDS011;52192;52.002;5.956;2022-11-15T16:14:55;2.70;;;0.68;;
39044;SDS011;52192;52.002;5.956;2022-11-15T16:17:21;1.10;;;0.60;;
39044;SDS011;52192;52.002;5.956;2022-11-15T16:19:50;0.55;;;0.50;;
39044;SDS011;52192;52.002;5.956;2022-11-15T16:22:16;0.70;;;0.70;;
39044;SDS011;52192;52.002;5.956;2022-11-15T16:24:41;1.60;;;0.90;;
39044;SDS011;52192;52.002;5.956;2022-11-15T16:27:17;1.45;;;0.85;;
39044;SDS011;52192;52.002;5.956;2022-11-15T16:29:46;0.40;;;0.40;;
39044;SDS011;52192;52.002;5.956;2022-11-15T16:32:13;1.13;;;0.60;;
39044;SDS011;52192;52.002;5.956;2022-11-15T16:34:39;1.75;;;0.73;;
39044;SDS011;52192;52.002;5.956;2022-11-15T16:37:05;1.63;;;0.80;;
39044;SDS011;52192;52.002;5.956;2022-11-15T16:39:46;1.85;;;0.60;;
39044;SDS011;52192;52.002;5.956;2022-11-15T16:42:12;0.77;;;0.77;;
39044;SDS011;52192;52.002;5.956;2022-11-15T16:54:43;1.48;;;0.93;;
39044;SDS011;52192;52.002;5.956;2022-11-15T16:57:09;0.80;;;0.73;;
39044;SDS011;52192;52.002;5.956;2022-11-15T16:59:35;1.00;;;0.60;;
39044;SDS011;52192;52.002;5.956;2022-11-15T17:02:01;1.30;;;0.90;;
39044;SDS011;52192;52.002;5.956;2022-11-15T17:04:27;1.20;;;0.77;;
39044;SDS011;52192;52.002;5.956;2022-11-15T17:06:57;0.63;;;0.50;;
39044;SDS011;52192;52.002;5.956;2022-11-15T17:09:23;0.77;;;0.63;;
39044;SDS011;52192;52.002;5.956;2022-11-15T17:11:49;0.68;;;0.63;;
39044;SDS011;52192;52.002;5.956;2022-11-15T17:14:15;0.80;;;0.57;;
39044;SDS011;52192;52.002;5.956;2022-11-15T17:16:41;0.70;;;0.35;;
39044;SDS011;52192;52.002;5.956;2022-11-15T17:19:14;0.75;;;0.52;;
39044;SDS011;52192;52.002;5.956;2022-11-15T17:21:42;2.22;;;0.85;;
39044;SDS011;52192;52.002;5.956;2022-11-15T17:24:09;1.13;;;0.85;;
39044;SDS011;52192;52.002;5.956;2022-11-15T17:26:35;0.70;;;0.70;;
39044;SDS011;52192;52.002;5.956;2022-11-15T17:29:01;1.58;;;1.02;;
39044;SDS011;52192;52.002;5.956;2022-11-15T17:31:28;2.45;;;0.93;;
39044;SDS011;52192;52.002;5.956;2022-11-15T17:33:57;0.80;;;0.57;;
39044;SDS011;52192;52.002;5.956;2022-11-15T17:36:23;0.85;;;0.85;;
39044;SDS011;52192;52.002;5.956;2022-11-15T17:38:49;1.73;;;0.95;;
39044;SDS011;52192;52.002;5.956;2022-11-15T17:41:16;1.10;;;0.82;;
39044;SDS011;52192;52.002;5.956;2022-11-15T17:43:42;2.33;;;1.30;;
39044;SDS011;52192;52.002;5.956;2022-11-15T17:46:12;1.33;;;0.70;;
39044;SDS011;52192;52.002;5.956;2022-11-15T17:48:39;0.80;;;0.80;;
39044;SDS011;52192;52.002;5.956;2022-11-15T17:51:06;2.42;;;1.45;;
39044;SDS011;52192;52.002;5.956;2022-11-15T17:53:36;1.50;;;0.88;;
39044;SDS011;52192;52.002;5.956;2022-11-15T17:56:07;0.90;;;0.80;;
39044;SDS011;52192;52.002;5.956;2022-11-15T17:58:34;2.75;;;1.27;;
39044;SDS011;52192;52.002;5.956;2022-11-15T18:01:04;2.95;;;1.23;;
39044;SDS011;52192;52.002;5.956;2022-11-15T18:03:40;2.60;;;1.40;;
39044;SDS011;52192;52.002;5.956;2022-11-15T18:06:06;1.02;;;0.60;;
39044;SDS011;52192;52.002;5.956;2022-11-15T18:08:34;1.23;;;1.10;;
39044;SDS011;52192;52.002;5.956;2022-11-15T18:13:47;2.33;;;1.15;;
39044;SDS011;52192;52.002;5.956;2022-11-15T18:16:16;2.03;;;1.30;;
39044;SDS011;52192;52.002;5.956;2022-11-15T18:18:43;0.88;;;0.68;;
39044;SDS011;52192;52.002;5.956;2022-11-15T18:21:10;1.13;;;0.82;;
39044;SDS011;52192;52.002;5.956;2022-11-15T18:23:37;2.22;;;1.17;;
39044;SDS011;52192;52.002;5.956;2022-11-15T18:26:04;1.33;;;1.10;;
39044;SDS011;52192;52.002;5.956;2022-11-15T18:28:32;1.50;;;1.17;;